Yarmouth Port, MA

01:46 EDT le 01 avril 2015 (GMT -0400)
Barnstable Municipal-Boardman-Polando Field | | Change Station
CLOSE
Current Station
Aéroport
Location: Hyannis,
Altitude: 52 ft
Stations météo à proximité

Alt. 52 ft 41.67 °N, 70.28 °W | Updated 50 minutes ago

Couvert
Couvert
38 ° F
Paraît 38 ° F
N
0
Vent Variable Vent de Nord

Aujourd'hui
Haut(e) -- | Bas -- ° F
--% Risque de précip.
Hier
Haut(e) -- | Bas -- ° F
Precip. -- pouce
6:24 AM 7:06 PM
Lune gibbeuse croissante, 91% visible
Pression 29.73 pouce
Visibilité 10.0 Miles terrestres
Nuages Couvert 6000 ft
Point de rosée 32 ° F
Humidité 79%
Précipitations 0.00 pouce
Profondeur de la couche neigeuse Non disponible.
UV 0 sur 12
Pollen 7.80 sur 12
Qualité de l'air Non disponible.
Flu Activity Non disponible.
METAR KHYA 010456Z AUTO 00000KT 10SM OVC060 03/00 A2973 RMK AO2 SLP066 T00330000 400941028

More Conditions Fewer Conditions

Pression 29.73 pouce
Visibilité 10.0 Miles terrestres
Nuages Couvert 6000 ft
Point de rosée 32 ° F
Humidité 79%
Précipitations 0.00 pouce
Profondeur de la couche neigeuse Non disponible.
UV 0 sur 12
Pollen 7.80 sur 12
Qualité de l'air Non disponible.
Flu Activity Non disponible.
METAR KHYA 010456Z AUTO 00000KT 10SM OVC060 03/00 A2973 RMK AO2 SLP066 T00330000 400941028

More Conditions Fewer Conditions

10-Day Weather Forecast

Almanac

Astronomie

Apr. 01, 2015 Lever Coucher
Temps réel
Crépuscule civil
Crépuscule nautique
Crépuscule astronomique
Lune
Durée de lumière visible
Longueur du jour
Tomorrow will be .
, % of the Moon is Illuminated

Extrêmes aujourd'hui

State Highs State Lows

Community

WunderPhotos

Upload Photos

1,809,919 Photos téléchargées !

WunderBlogs® & News

Nearby

Qualité de l'air

  Qualité de l'air Indice de la qualité de l'air Polluant
Not available.

Épaisseur de neige

Station Depth Altitude

Activité sismique

Ville Distance Mag. Time & Date
Minimum magnitude displayed is 2.5.

Températures des eaux côtières

Lieu Température

Stations

Stations météo à proximité

Emplacement de la station Température Refroidissement éolien Point de rosée Humidité Vent Precip. Alt. Mise à jour Type